Главная страница
METAR-TAF:

METAR-TAF

Аэропорты :

Минск-1, Белоруссия

широта: 53-51-54N, долгота: 027-32-30E, высота над уровнем моря: 228 м

Текущие метеонаблюдения

Эта сводка был подготовлена 12 часа и 47 минут назад, в 14:00 UTC
Ветер 12 Узел от западный с порывами до 21 Узел
Температура 25°C
Влажность 32%
Давление 1016 hPa
Видимость 10 км и более
Нет облачности ниже 1500 м, и нет кучево-дождевой облачности

METAR: UMMM 201400Z 27006G11MPS CAVOK 25/07 Q1016 RMK QFE743

Время: 05:47 (02:47 UTC)


TAF: отсутствует

Метеонаблюдения и прогнозы для более 4000 аэропортов (сводки METAR и TAF).

Имеющиеся станции представлены на карте желтыми и красными точками.

Чтобы увидеть название станции, наведите на нее мышь.

Затем щелкните, чтобы увидеть метеонаблюдения и метеопрогнозы.

Управление картой: чтобы увеличить масштаб, щелкните зеленые кнопки с черным крестиком; чтобы уменьшить масштаб, щелкните зеленую кнопку с тире; для просмотра соседних карт щелкайте зеленые стрелки.


METAR-TAF: